Aérodrome :
LOGIN :

S'inscrire | Disclaimer

   EN    FR    IT 

 










Légende :    VFR   VFR Marginal   IFR   IFR Intensif   IFR Très Intensif
Visi : 
Plafond : 
>= 8 km
>= 3000ft
5 à 8 km
1000 à 3000 ft
1500m à 5 km
500 à 1000 ft
800 à 1500m
200 à 500 ft
< 800m
< 200 ft
Symboles :   Orages  Brouillard  Fortes neiges  Fortes précipitations  Vent > 20 kt
SIGMETs :   Divers  Orages  Givrage  Turbulence  Onde Orograph.  Cendres Volcan.






- Altitude de l'aérodrome : 3 ft
- Code IATA : LWR


EHLW - Leuuwarden Air Base

DERNIER METAR :
  • 162112Z AUTO 06003KT 350V140 4100 BR OVC130 17/17 Q1011 GRN

METARs EXPIRÉS :
  • 162055Z AUTO VRB01KT 6000 BR SCT130 OVC270 18/17 Q1010 WHT
  • 162025Z AUTO 36003KT 6000 BR OVC310 17/17 Q1010 WHT
  • 161955Z AUTO 01005KT 7000 BR FEW210 OVC270 17/16 Q1010 WHT
  • 161934Z AUTO 34003KT 7000 BR SCT160 OVC210 18/17 Q1010 WHT
  • 161925Z AUTO 34003KT 8000 BR OVC160 18/17 Q1010 BLU
  • 161855Z AUTO 33004KT 290V350 9000 BR OVC140 19/18 Q1009 BLU
  • 161825Z AUTO 30004KT 9999 OVC120 21/18 Q1009 BLU

TAF TAF EHLW
Valide du 16 à 21h jusqu'au 17 à 09h UTC


162014Z 1621/1709 01004KT 7000 NSC
BECMG 1621/1624 VRB02KT 3000 BR MIFG
PROB40 1700/1706 0800 FG
BECMG 1704/1707 04007KT



MET'MAP, la Météo Aéronautique d'un coup d'oeil ! - Copyright ORBIFLY Décembre 2007 - Disclaimer

ORBIFLY MET'MAP TEAM :

Programmation & Développement : Alexandra Zaïnal
Sur une idée originale de : Baudouin d'Aumeries
Soutien technique & logistique : Manuel Goepfert
Assistance : Marc-Olivier Méhu




SOURCES & CREDITS :

   NOAA